sensor_id;sensor_type;location;lat;lon;timestamp;P1;durP1;ratioP1;P2;durP2;ratioP2
19251;SDS011;9760;50.944;5.304;2022-07-17T00:00:12;8.10;;;1.50;;
19251;SDS011;9760;50.944;5.304;2022-07-17T00:02:38;9.80;;;2.17;;
19251;SDS011;9760;50.944;5.304;2022-07-17T00:05:04;6.33;;;1.77;;
19251;SDS011;9760;50.944;5.304;2022-07-17T00:07:31;8.43;;;2.17;;
19251;SDS011;9760;50.944;5.304;2022-07-17T00:09:56;6.87;;;1.97;;
19251;SDS011;9760;50.944;5.304;2022-07-17T00:12:22;12.07;;;2.30;;
19251;SDS011;9760;50.944;5.304;2022-07-17T00:14:48;5.03;;;1.90;;
19251;SDS011;9760;50.944;5.304;2022-07-17T00:17:13;11.47;;;1.80;;
19251;SDS011;9760;50.944;5.304;2022-07-17T00:19:40;6.37;;;1.70;;
19251;SDS011;9760;50.944;5.304;2022-07-17T00:22:06;8.83;;;1.93;;
19251;SDS011;9760;50.944;5.304;2022-07-17T00:24:32;6.30;;;1.83;;
19251;SDS011;9760;50.944;5.304;2022-07-17T00:26:57;5.73;;;1.87;;
19251;SDS011;9760;50.944;5.304;2022-07-17T00:29:23;6.07;;;1.67;;
19251;SDS011;9760;50.944;5.304;2022-07-17T00:31:49;8.53;;;1.80;;
19251;SDS011;9760;50.944;5.304;2022-07-17T00:34:15;9.63;;;1.70;;
19251;SDS011;9760;50.944;5.304;2022-07-17T00:36:41;13.93;;;2.07;;
19251;SDS011;9760;50.944;5.304;2022-07-17T00:39:07;12.00;;;1.87;;
19251;SDS011;9760;50.944;5.304;2022-07-17T00:41:33;7.40;;;1.53;;
19251;SDS011;9760;50.944;5.304;2022-07-17T00:44:06;8.20;;;1.83;;
19251;SDS011;9760;50.944;5.304;2022-07-17T00:46:34;9.73;;;1.83;;
19251;SDS011;9760;50.944;5.304;2022-07-17T00:49:00;9.30;;;2.10;;
19251;SDS011;9760;50.944;5.304;2022-07-17T00:51:26;16.17;;;2.40;;
19251;SDS011;9760;50.944;5.304;2022-07-17T00:53:52;12.00;;;1.90;;
19251;SDS011;9760;50.944;5.304;2022-07-17T00:56:20;10.97;;;1.93;;
19251;SDS011;9760;50.944;5.304;2022-07-17T00:58:48;7.90;;;2.00;;
19251;SDS011;9760;50.944;5.304;2022-07-17T01:01:15;9.03;;;2.37;;
19251;SDS011;9760;50.944;5.304;2022-07-17T01:03:41;10.97;;;2.10;;
19251;SDS011;9760;50.944;5.304;2022-07-17T01:06:07;5.67;;;2.07;;
19251;SDS011;9760;50.944;5.304;2022-07-17T01:08:33;5.80;;;1.87;;
19251;SDS011;9760;50.944;5.304;2022-07-17T01:10:59;5.97;;;2.10;;
19251;SDS011;9760;50.944;5.304;2022-07-17T01:13:25;7.83;;;1.63;;
19251;SDS011;9760;50.944;5.304;2022-07-17T01:15:52;10.80;;;1.83;;
19251;SDS011;9760;50.944;5.304;2022-07-17T01:18:18;7.57;;;2.03;;
19251;SDS011;9760;50.944;5.304;2022-07-17T01:20:45;7.50;;;2.10;;
19251;SDS011;9760;50.944;5.304;2022-07-17T01:23:13;6.63;;;1.40;;
19251;SDS011;9760;50.944;5.304;2022-07-17T01:25:40;9.87;;;2.17;;
19251;SDS011;9760;50.944;5.304;2022-07-17T01:28:05;8.87;;;2.10;;
19251;SDS011;9760;50.944;5.304;2022-07-17T01:30:32;4.53;;;1.63;;
19251;SDS011;9760;50.944;5.304;2022-07-17T01:32:59;11.87;;;2.17;;
19251;SDS011;9760;50.944;5.304;2022-07-17T01:35:24;5.53;;;2.07;;
19251;SDS011;9760;50.944;5.304;2022-07-17T01:37:50;6.57;;;1.67;;
19251;SDS011;9760;50.944;5.304;2022-07-17T01:40:16;7.27;;;2.10;;
19251;SDS011;9760;50.944;5.304;2022-07-17T01:42:43;4.47;;;1.63;;
19251;SDS011;9760;50.944;5.304;2022-07-17T01:45:10;7.17;;;2.13;;
19251;SDS011;9760;50.944;5.304;2022-07-17T01:47:37;4.13;;;1.70;;
19251;SDS011;9760;50.944;5.304;2022-07-17T01:50:03;11.17;;;2.27;;
19251;SDS011;9760;50.944;5.304;2022-07-17T01:52:29;6.70;;;1.97;;
19251;SDS011;9760;50.944;5.304;2022-07-17T01:54:55;9.47;;;2.07;;
19251;SDS011;9760;50.944;5.304;2022-07-17T01:57:21;5.13;;;1.70;;
19251;SDS011;9760;50.944;5.304;2022-07-17T01:59:47;9.30;;;1.77;;
19251;SDS011;9760;50.944;5.304;2022-07-17T02:02:13;16.47;;;2.00;;
19251;SDS011;9760;50.944;5.304;2022-07-17T02:04:40;8.40;;;2.43;;
19251;SDS011;9760;50.944;5.304;2022-07-17T02:07:07;8.87;;;2.50;;
19251;SDS011;9760;50.944;5.304;2022-07-17T02:09:32;8.20;;;2.83;;
19251;SDS011;9760;50.944;5.304;2022-07-17T02:11:58;8.63;;;3.07;;
19251;SDS011;9760;50.944;5.304;2022-07-17T02:14:24;11.73;;;2.90;;
19251;SDS011;9760;50.944;5.304;2022-07-17T02:16:50;14.17;;;3.57;;
19251;SDS011;9760;50.944;5.304;2022-07-17T02:19:15;7.00;;;3.67;;
19251;SDS011;9760;50.944;5.304;2022-07-17T02:21:41;11.87;;;3.90;;
19251;SDS011;9760;50.944;5.304;2022-07-17T02:24:07;11.17;;;3.93;;
19251;SDS011;9760;50.944;5.304;2022-07-17T02:26:33;8.73;;;3.90;;
19251;SDS011;9760;50.944;5.304;2022-07-17T02:28:59;9.93;;;4.07;;
19251;SDS011;9760;50.944;5.304;2022-07-17T02:31:24;11.47;;;4.17;;
19251;SDS011;9760;50.944;5.304;2022-07-17T02:33:50;11.03;;;3.50;;
19251;SDS011;9760;50.944;5.304;2022-07-17T02:36:16;9.00;;;3.53;;
19251;SDS011;9760;50.944;5.304;2022-07-17T02:38:41;11.50;;;3.63;;
19251;SDS011;9760;50.944;5.304;2022-07-17T02:41:07;5.97;;;3.03;;
19251;SDS011;9760;50.944;5.304;2022-07-17T02:43:33;8.50;;;3.17;;
19251;SDS011;9760;50.944;5.304;2022-07-17T02:45:59;10.80;;;3.33;;
19251;SDS011;9760;50.944;5.304;2022-07-17T02:48:26;12.43;;;3.00;;
19251;SDS011;9760;50.944;5.304;2022-07-17T02:50:51;12.63;;;4.93;;
19251;SDS011;9760;50.944;5.304;2022-07-17T02:53:17;13.47;;;4.80;;
19251;SDS011;9760;50.944;5.304;2022-07-17T02:55:42;18.27;;;6.07;;
19251;SDS011;9760;50.944;5.304;2022-07-17T02:58:08;13.63;;;4.70;;
19251;SDS011;9760;50.944;5.304;2022-07-17T03:00:34;11.17;;;3.93;;
19251;SDS011;9760;50.944;5.304;2022-07-17T03:02:59;12.00;;;3.03;;
19251;SDS011;9760;50.944;5.304;2022-07-17T03:05:25;8.20;;;3.50;;
19251;SDS011;9760;50.944;5.304;2022-07-17T03:07:51;12.57;;;3.40;;
19251;SDS011;9760;50.944;5.304;2022-07-17T03:10:16;11.03;;;3.87;;
19251;SDS011;9760;50.944;5.304;2022-07-17T03:12:42;11.93;;;4.50;;
19251;SDS011;9760;50.944;5.304;2022-07-17T03:15:08;12.50;;;3.50;;
19251;SDS011;9760;50.944;5.304;2022-07-17T03:17:35;12.07;;;3.80;;
19251;SDS011;9760;50.944;5.304;2022-07-17T03:20:03;9.20;;;3.80;;
19251;SDS011;9760;50.944;5.304;2022-07-17T03:22:29;12.37;;;3.47;;
19251;SDS011;9760;50.944;5.304;2022-07-17T03:24:55;8.67;;;3.10;;
19251;SDS011;9760;50.944;5.304;2022-07-17T03:27:20;6.57;;;2.97;;
19251;SDS011;9760;50.944;5.304;2022-07-17T03:29:46;12.03;;;3.33;;
19251;SDS011;9760;50.944;5.304;2022-07-17T03:32:12;14.13;;;3.33;;
19251;SDS011;9760;50.944;5.304;2022-07-17T03:34:38;7.60;;;3.00;;
19251;SDS011;9760;50.944;5.304;2022-07-17T03:37:04;7.70;;;3.10;;
19251;SDS011;9760;50.944;5.304;2022-07-17T03:39:30;15.23;;;2.90;;
19251;SDS011;9760;50.944;5.304;2022-07-17T03:41:56;8.13;;;2.77;;
19251;SDS011;9760;50.944;5.304;2022-07-17T03:44:22;8.63;;;3.07;;
19251;SDS011;9760;50.944;5.304;2022-07-17T03:46:48;9.80;;;3.20;;
19251;SDS011;9760;50.944;5.304;2022-07-17T03:49:13;8.93;;;2.53;;
19251;SDS011;9760;50.944;5.304;2022-07-17T03:51:39;6.63;;;2.67;;
19251;SDS011;9760;50.944;5.304;2022-07-17T03:54:05;6.20;;;2.40;;
19251;SDS011;9760;50.944;5.304;2022-07-17T03:56:30;10.23;;;2.63;;
19251;SDS011;9760;50.944;5.304;2022-07-17T03:58:56;5.70;;;2.30;;
19251;SDS011;9760;50.944;5.304;2022-07-17T04:01:22;6.80;;;2.47;;
19251;SDS011;9760;50.944;5.304;2022-07-17T04:03:47;8.63;;;2.47;;
19251;SDS011;9760;50.944;5.304;2022-07-17T04:06:13;8.60;;;2.40;;
19251;SDS011;9760;50.944;5.304;2022-07-17T04:08:39;8.93;;;2.23;;
19251;SDS011;9760;50.944;5.304;2022-07-17T04:11:04;9.23;;;2.10;;
19251;SDS011;9760;50.944;5.304;2022-07-17T04:13:30;4.77;;;2.23;;
19251;SDS011;9760;50.944;5.304;2022-07-17T04:15:55;6.30;;;2.30;;
19251;SDS011;9760;50.944;5.304;2022-07-17T04:18:25;8.87;;;2.23;;
19251;SDS011;9760;50.944;5.304;2022-07-17T04:20:53;6.40;;;2.47;;
19251;SDS011;9760;50.944;5.304;2022-07-17T04:23:19;7.00;;;2.23;;
19251;SDS011;9760;50.944;5.304;2022-07-17T04:25:46;9.70;;;2.37;;
19251;SDS011;9760;50.944;5.304;2022-07-17T04:28:12;7.13;;;2.67;;
19251;SDS011;9760;50.944;5.304;2022-07-17T04:30:38;7.77;;;2.23;;
19251;SDS011;9760;50.944;5.304;2022-07-17T04:33:04;6.70;;;2.43;;
19251;SDS011;9760;50.944;5.304;2022-07-17T04:35:30;7.27;;;2.20;;
19251;SDS011;9760;50.944;5.304;2022-07-17T04:37:56;8.77;;;2.87;;
19251;SDS011;9760;50.944;5.304;2022-07-17T04:40:22;5.43;;;2.40;;
19251;SDS011;9760;50.944;5.304;2022-07-17T04:42:47;8.53;;;2.60;;
19251;SDS011;9760;50.944;5.304;2022-07-17T04:45:13;4.53;;;2.17;;
19251;SDS011;9760;50.944;5.304;2022-07-17T04:47:39;9.13;;;2.63;;
19251;SDS011;9760;50.944;5.304;2022-07-17T04:50:05;12.17;;;3.00;;
19251;SDS011;9760;50.944;5.304;2022-07-17T04:52:31;12.80;;;3.70;;
19251;SDS011;9760;50.944;5.304;2022-07-17T04:54:57;10.87;;;4.53;;
19251;SDS011;9760;50.944;5.304;2022-07-17T04:57:23;9.37;;;4.30;;
19251;SDS011;9760;50.944;5.304;2022-07-17T04:59:48;8.33;;;4.47;;
19251;SDS011;9760;50.944;5.304;2022-07-17T05:02:14;14.70;;;5.80;;
19251;SDS011;9760;50.944;5.304;2022-07-17T05:04:39;8.57;;;4.97;;
19251;SDS011;9760;50.944;5.304;2022-07-17T05:07:07;10.63;;;4.20;;
19251;SDS011;9760;50.944;5.304;2022-07-17T05:09:32;10.87;;;3.47;;
19251;SDS011;9760;50.944;5.304;2022-07-17T05:11:58;10.13;;;3.37;;
19251;SDS011;9760;50.944;5.304;2022-07-17T05:14:24;9.97;;;3.23;;
19251;SDS011;9760;50.944;5.304;2022-07-17T05:16:49;9.20;;;3.47;;
19251;SDS011;9760;50.944;5.304;2022-07-17T05:19:15;12.67;;;4.27;;
19251;SDS011;9760;50.944;5.304;2022-07-17T05:21:41;9.80;;;2.90;;
19251;SDS011;9760;50.944;5.304;2022-07-17T05:24:06;15.73;;;3.70;;
19251;SDS011;9760;50.944;5.304;2022-07-17T05:26:32;16.50;;;3.30;;
19251;SDS011;9760;50.944;5.304;2022-07-17T05:28:58;9.00;;;3.53;;
19251;SDS011;9760;50.944;5.304;2022-07-17T05:31:23;8.67;;;4.10;;
19251;SDS011;9760;50.944;5.304;2022-07-17T05:33:49;9.33;;;3.57;;
19251;SDS011;9760;50.944;5.304;2022-07-17T05:36:14;10.50;;;3.73;;
19251;SDS011;9760;50.944;5.304;2022-07-17T05:38:40;9.23;;;3.40;;
19251;SDS011;9760;50.944;5.304;2022-07-17T05:41:06;9.03;;;3.20;;
19251;SDS011;9760;50.944;5.304;2022-07-17T05:43:31;9.03;;;3.47;;
19251;SDS011;9760;50.944;5.304;2022-07-17T05:45:57;7.47;;;3.27;;
19251;SDS011;9760;50.944;5.304;2022-07-17T05:48:23;8.90;;;3.33;;
19251;SDS011;9760;50.944;5.304;2022-07-17T05:50:50;7.40;;;3.40;;
19251;SDS011;9760;50.944;5.304;2022-07-17T05:53:16;5.87;;;3.10;;
19251;SDS011;9760;50.944;5.304;2022-07-17T05:55:42;8.73;;;3.20;;
19251;SDS011;9760;50.944;5.304;2022-07-17T05:58:08;11.67;;;3.50;;
19251;SDS011;9760;50.944;5.304;2022-07-17T06:00:34;8.93;;;3.73;;
19251;SDS011;9760;50.944;5.304;2022-07-17T06:03:00;7.67;;;2.87;;
19251;SDS011;9760;50.944;5.304;2022-07-17T06:05:25;8.60;;;3.13;;
19251;SDS011;9760;50.944;5.304;2022-07-17T06:07:52;11.73;;;2.90;;
19251;SDS011;9760;50.944;5.304;2022-07-17T06:10:18;7.07;;;3.40;;
19251;SDS011;9760;50.944;5.304;2022-07-17T06:12:44;6.50;;;2.73;;
19251;SDS011;9760;50.944;5.304;2022-07-17T06:15:10;11.47;;;3.10;;
19251;SDS011;9760;50.944;5.304;2022-07-17T06:17:36;9.10;;;3.33;;
19251;SDS011;9760;50.944;5.304;2022-07-17T06:20:02;9.57;;;3.00;;
19251;SDS011;9760;50.944;5.304;2022-07-17T06:22:29;13.60;;;3.10;;
19251;SDS011;9760;50.944;5.304;2022-07-17T06:24:55;6.83;;;2.77;;
19251;SDS011;9760;50.944;5.304;2022-07-17T06:27:20;11.53;;;2.73;;
19251;SDS011;9760;50.944;5.304;2022-07-17T06:29:46;9.00;;;3.00;;
19251;SDS011;9760;50.944;5.304;2022-07-17T06:32:12;11.37;;;2.80;;
19251;SDS011;9760;50.944;5.304;2022-07-17T06:34:38;6.07;;;2.40;;
19251;SDS011;9760;50.944;5.304;2022-07-17T06:37:04;8.07;;;2.60;;
19251;SDS011;9760;50.944;5.304;2022-07-17T06:39:30;11.53;;;3.10;;
19251;SDS011;9760;50.944;5.304;2022-07-17T06:41:55;11.30;;;2.67;;
19251;SDS011;9760;50.944;5.304;2022-07-17T06:44:21;7.33;;;3.63;;
19251;SDS011;9760;50.944;5.304;2022-07-17T06:46:46;9.70;;;2.60;;
19251;SDS011;9760;50.944;5.304;2022-07-17T06:49:12;8.97;;;2.60;;
19251;SDS011;9760;50.944;5.304;2022-07-17T06:51:38;16.53;;;3.07;;
19251;SDS011;9760;50.944;5.304;2022-07-17T06:54:03;11.90;;;3.10;;
19251;SDS011;9760;50.944;5.304;2022-07-17T06:56:29;11.93;;;3.40;;
19251;SDS011;9760;50.944;5.304;2022-07-17T06:58:55;9.20;;;2.40;;
19251;SDS011;9760;50.944;5.304;2022-07-17T07:01:20;6.50;;;2.27;;
19251;SDS011;9760;50.944;5.304;2022-07-17T07:03:46;8.90;;;2.70;;
19251;SDS011;9760;50.944;5.304;2022-07-17T07:06:11;8.27;;;2.70;;
19251;SDS011;9760;50.944;5.304;2022-07-17T07:08:37;7.33;;;2.30;;
19251;SDS011;9760;50.944;5.304;2022-07-17T07:11:03;14.13;;;2.70;;
19251;SDS011;9760;50.944;5.304;2022-07-17T07:13:29;12.37;;;2.80;;
19251;SDS011;9760;50.944;5.304;2022-07-17T07:15:54;8.10;;;2.30;;
19251;SDS011;9760;50.944;5.304;2022-07-17T07:18:20;10.67;;;2.50;;
19251;SDS011;9760;50.944;5.304;2022-07-17T07:20:47;10.23;;;2.40;;
19251;SDS011;9760;50.944;5.304;2022-07-17T07:23:13;6.13;;;2.13;;
19251;SDS011;9760;50.944;5.304;2022-07-17T07:25:38;5.63;;;2.00;;
19251;SDS011;9760;50.944;5.304;2022-07-17T07:28:04;10.20;;;2.23;;
19251;SDS011;9760;50.944;5.304;2022-07-17T07:30:31;10.07;;;2.50;;
19251;SDS011;9760;50.944;5.304;2022-07-17T07:32:57;7.80;;;2.10;;
19251;SDS011;9760;50.944;5.304;2022-07-17T07:35:23;10.93;;;2.10;;
19251;SDS011;9760;50.944;5.304;2022-07-17T07:37:48;10.27;;;1.87;;
19251;SDS011;9760;50.944;5.304;2022-07-17T07:40:14;13.33;;;2.27;;
19251;SDS011;9760;50.944;5.304;2022-07-17T07:42:40;11.97;;;2.13;;
19251;SDS011;9760;50.944;5.304;2022-07-17T07:45:07;10.67;;;2.60;;
19251;SDS011;9760;50.944;5.304;2022-07-17T07:47:40;8.33;;;2.27;;
19251;SDS011;9760;50.944;5.304;2022-07-17T07:50:06;12.67;;;2.53;;
19251;SDS011;9760;50.944;5.304;2022-07-17T07:52:32;5.90;;;2.63;;
19251;SDS011;9760;50.944;5.304;2022-07-17T07:54:58;15.80;;;2.80;;
19251;SDS011;9760;50.944;5.304;2022-07-17T07:57:23;8.00;;;2.50;;
19251;SDS011;9760;50.944;5.304;2022-07-17T07:59:49;9.67;;;2.63;;
19251;SDS011;9760;50.944;5.304;2022-07-17T08:02:15;15.77;;;2.67;;
19251;SDS011;9760;50.944;5.304;2022-07-17T08:04:40;9.33;;;2.10;;
19251;SDS011;9760;50.944;5.304;2022-07-17T08:07:06;13.37;;;1.80;;
19251;SDS011;9760;50.944;5.304;2022-07-17T08:09:31;10.63;;;1.97;;
19251;SDS011;9760;50.944;5.304;2022-07-17T08:11:57;9.73;;;1.73;;
19251;SDS011;9760;50.944;5.304;2022-07-17T08:14:23;6.80;;;1.90;;
19251;SDS011;9760;50.944;5.304;2022-07-17T08:16:48;5.13;;;1.40;;
19251;SDS011;9760;50.944;5.304;2022-07-17T08:19:14;5.37;;;1.90;;
19251;SDS011;9760;50.944;5.304;2022-07-17T08:21:40;9.23;;;2.17;;
19251;SDS011;9760;50.944;5.304;2022-07-17T08:24:05;10.10;;;2.07;;
19251;SDS011;9760;50.944;5.304;2022-07-17T08:26:31;4.13;;;1.40;;
19251;SDS011;9760;50.944;5.304;2022-07-17T08:28:56;7.20;;;1.67;;
19251;SDS011;9760;50.944;5.304;2022-07-17T08:31:22;10.73;;;1.97;;
19251;SDS011;9760;50.944;5.304;2022-07-17T08:33:48;8.50;;;1.73;;
19251;SDS011;9760;50.944;5.304;2022-07-17T08:36:13;5.83;;;1.80;;
19251;SDS011;9760;50.944;5.304;2022-07-17T08:38:39;9.33;;;1.90;;
19251;SDS011;9760;50.944;5.304;2022-07-17T08:41:05;8.20;;;2.00;;
19251;SDS011;9760;50.944;5.304;2022-07-17T08:43:30;12.57;;;2.20;;
19251;SDS011;9760;50.944;5.304;2022-07-17T08:45:56;11.23;;;2.00;;
19251;SDS011;9760;50.944;5.304;2022-07-17T08:48:23;7.90;;;1.70;;
19251;SDS011;9760;50.944;5.304;2022-07-17T08:50:51;9.97;;;1.57;;
19251;SDS011;9760;50.944;5.304;2022-07-17T08:53:16;9.20;;;1.60;;
19251;SDS011;9760;50.944;5.304;2022-07-17T08:55:42;8.83;;;2.13;;
19251;SDS011;9760;50.944;5.304;2022-07-17T08:58:08;13.47;;;1.60;;
19251;SDS011;9760;50.944;5.304;2022-07-17T09:00:40;5.30;;;1.53;;
19251;SDS011;9760;50.944;5.304;2022-07-17T09:03:06;4.47;;;1.20;;
19251;SDS011;9760;50.944;5.304;2022-07-17T09:05:36;4.87;;;1.17;;
19251;SDS011;9760;50.944;5.304;2022-07-17T09:08:05;8.43;;;1.37;;
19251;SDS011;9760;50.944;5.304;2022-07-17T09:10:39;10.67;;;1.53;;
19251;SDS011;9760;50.944;5.304;2022-07-17T09:13:17;5.67;;;1.40;;
19251;SDS011;9760;50.944;5.304;2022-07-17T09:15:44;6.50;;;1.73;;
19251;SDS011;9760;50.944;5.304;2022-07-17T09:18:10;6.00;;;1.33;;
19251;SDS011;9760;50.944;5.304;2022-07-17T09:23:16;5.10;;;1.40;;
19251;SDS011;9760;50.944;5.304;2022-07-17T09:25:44;3.23;;;1.20;;
19251;SDS011;9760;50.944;5.304;2022-07-17T09:28:12;4.27;;;1.57;;
19251;SDS011;9760;50.944;5.304;2022-07-17T09:30:40;3.97;;;1.07;;
19251;SDS011;9760;50.944;5.304;2022-07-17T09:33:13;7.23;;;1.30;;
19251;SDS011;9760;50.944;5.304;2022-07-17T09:35:48;7.60;;;1.20;;
19251;SDS011;9760;50.944;5.304;2022-07-17T09:38:29;4.67;;;1.40;;
19251;SDS011;9760;50.944;5.304;2022-07-17T09:46:16;4.57;;;1.30;;
19251;SDS011;9760;50.944;5.304;2022-07-17T09:48:50;8.83;;;1.43;;
19251;SDS011;9760;50.944;5.304;2022-07-17T09:51:19;7.23;;;1.50;;
19251;SDS011;9760;50.944;5.304;2022-07-17T09:53:49;6.20;;;1.47;;
19251;SDS011;9760;50.944;5.304;2022-07-17T09:56:17;8.87;;;1.40;;
19251;SDS011;9760;50.944;5.304;2022-07-17T09:58:46;4.40;;;1.40;;
19251;SDS011;9760;50.944;5.304;2022-07-17T10:01:15;6.87;;;1.30;;
19251;SDS011;9760;50.944;5.304;2022-07-17T10:03:42;7.40;;;1.30;;
19251;SDS011;9760;50.944;5.304;2022-07-17T10:06:09;5.53;;;1.33;;
19251;SDS011;9760;50.944;5.304;2022-07-17T10:08:35;7.47;;;1.70;;
19251;SDS011;9760;50.944;5.304;2022-07-17T10:11:03;4.97;;;1.60;;
19251;SDS011;9760;50.944;5.304;2022-07-17T10:13:32;5.57;;;1.80;;
19251;SDS011;9760;50.944;5.304;2022-07-17T10:16:00;7.43;;;1.63;;
19251;SDS011;9760;50.944;5.304;2022-07-17T10:18:39;7.03;;;1.43;;
19251;SDS011;9760;50.944;5.304;2022-07-17T10:23:35;5.07;;;1.70;;
19251;SDS011;9760;50.944;5.304;2022-07-17T10:26:01;3.83;;;1.33;;
19251;SDS011;9760;50.944;5.304;2022-07-17T10:28:40;4.73;;;1.50;;
19251;SDS011;9760;50.944;5.304;2022-07-17T10:31:14;5.40;;;1.47;;
19251;SDS011;9760;50.944;5.304;2022-07-17T10:33:55;5.03;;;1.40;;
19251;SDS011;9760;50.944;5.304;2022-07-17T10:41:40;9.17;;;1.57;;
19251;SDS011;9760;50.944;5.304;2022-07-17T10:44:07;3.90;;;1.50;;
19251;SDS011;9760;50.944;5.304;2022-07-17T10:46:33;4.63;;;1.37;;
19251;SDS011;9760;50.944;5.304;2022-07-17T10:49:00;4.73;;;1.20;;
19251;SDS011;9760;50.944;5.304;2022-07-17T10:51:30;6.00;;;1.70;;
19251;SDS011;9760;50.944;5.304;2022-07-17T10:53:57;3.73;;;1.43;;
19251;SDS011;9760;50.944;5.304;2022-07-17T10:56:27;6.87;;;1.70;;
19251;SDS011;9760;50.944;5.304;2022-07-17T10:58:53;3.43;;;1.03;;
19251;SDS011;9760;50.944;5.304;2022-07-17T11:01:25;6.40;;;1.50;;
19251;SDS011;9760;50.944;5.304;2022-07-17T11:03:52;4.33;;;1.50;;
19251;SDS011;9760;50.944;5.304;2022-07-17T11:08:50;8.07;;;1.60;;
19251;SDS011;9760;50.944;5.304;2022-07-17T11:11:33;7.23;;;1.67;;
19251;SDS011;9760;50.944;5.304;2022-07-17T11:14:10;3.43;;;1.43;;
19251;SDS011;9760;50.944;5.304;2022-07-17T11:16:44;3.97;;;1.67;;
19251;SDS011;9760;50.944;5.304;2022-07-17T11:19:10;3.87;;;1.10;;
19251;SDS011;9760;50.944;5.304;2022-07-17T11:21:48;4.80;;;1.27;;
19251;SDS011;9760;50.944;5.304;2022-07-17T11:24:14;4.80;;;1.30;;
19251;SDS011;9760;50.944;5.304;2022-07-17T11:26:41;6.23;;;1.70;;
19251;SDS011;9760;50.944;5.304;2022-07-17T11:29:07;8.43;;;1.73;;
19251;SDS011;9760;50.944;5.304;2022-07-17T11:31:32;6.47;;;1.90;;
19251;SDS011;9760;50.944;5.304;2022-07-17T11:33:59;5.03;;;1.63;;
19251;SDS011;9760;50.944;5.304;2022-07-17T11:36:33;6.00;;;1.40;;
19251;SDS011;9760;50.944;5.304;2022-07-17T11:39:08;6.77;;;1.60;;
19251;SDS011;9760;50.944;5.304;2022-07-17T11:41:41;5.47;;;1.70;;
19251;SDS011;9760;50.944;5.304;2022-07-17T11:44:09;6.13;;;1.30;;
19251;SDS011;9760;50.944;5.304;2022-07-17T11:46:39;6.57;;;1.37;;
19251;SDS011;9760;50.944;5.304;2022-07-17T11:49:07;5.17;;;1.60;;
19251;SDS011;9760;50.944;5.304;2022-07-17T11:51:40;7.20;;;1.57;;
19251;SDS011;9760;50.944;5.304;2022-07-17T11:54:13;4.93;;;1.23;;
19251;SDS011;9760;50.944;5.304;2022-07-17T11:56:40;8.10;;;1.50;;
19251;SDS011;9760;50.944;5.304;2022-07-17T11:59:09;8.20;;;1.60;;
19251;SDS011;9760;50.944;5.304;2022-07-17T12:01:42;5.30;;;1.93;;
19251;SDS011;9760;50.944;5.304;2022-07-17T12:04:10;3.93;;;1.40;;
19251;SDS011;9760;50.944;5.304;2022-07-17T12:06:38;6.80;;;1.57;;
19251;SDS011;9760;50.944;5.304;2022-07-17T12:09:07;6.70;;;1.57;;
19251;SDS011;9760;50.944;5.304;2022-07-17T12:11:44;6.33;;;1.50;;
19251;SDS011;9760;50.944;5.304;2022-07-17T12:14:13;6.87;;;1.57;;
19251;SDS011;9760;50.944;5.304;2022-07-17T12:16:39;8.37;;;1.53;;
19251;SDS011;9760;50.944;5.304;2022-07-17T12:21:34;3.43;;;1.40;;
19251;SDS011;9760;50.944;5.304;2022-07-17T12:24:23;6.40;;;1.40;;
19251;SDS011;9760;50.944;5.304;2022-07-17T12:26:51;6.90;;;1.50;;
19251;SDS011;9760;50.944;5.304;2022-07-17T12:29:17;5.00;;;1.43;;
19251;SDS011;9760;50.944;5.304;2022-07-17T12:31:43;5.20;;;1.80;;
19251;SDS011;9760;50.944;5.304;2022-07-17T12:34:09;4.23;;;1.40;;
19251;SDS011;9760;50.944;5.304;2022-07-17T12:36:35;8.30;;;1.80;;
19251;SDS011;9760;50.944;5.304;2022-07-17T12:39:01;4.17;;;1.50;;
19251;SDS011;9760;50.944;5.304;2022-07-17T12:41:26;6.97;;;1.60;;
19251;SDS011;9760;50.944;5.304;2022-07-17T12:43:52;5.10;;;1.77;;
19251;SDS011;9760;50.944;5.304;2022-07-17T12:46:18;3.33;;;1.40;;
19251;SDS011;9760;50.944;5.304;2022-07-17T12:48:44;4.17;;;1.50;;
19251;SDS011;9760;50.944;5.304;2022-07-17T12:51:10;2.53;;;1.27;;
19251;SDS011;9760;50.944;5.304;2022-07-17T12:53:39;13.17;;;1.63;;
19251;SDS011;9760;50.944;5.304;2022-07-17T12:56:06;3.97;;;1.40;;
19251;SDS011;9760;50.944;5.304;2022-07-17T12:58:32;4.10;;;1.30;;
19251;SDS011;9760;50.944;5.304;2022-07-17T13:00:58;5.27;;;1.33;;
19251;SDS011;9760;50.944;5.304;2022-07-17T13:03:24;7.00;;;1.37;;
19251;SDS011;9760;50.944;5.304;2022-07-17T13:05:51;4.63;;;1.73;;
19251;SDS011;9760;50.944;5.304;2022-07-17T13:08:16;8.77;;;1.50;;
19251;SDS011;9760;50.944;5.304;2022-07-17T13:10:42;3.13;;;1.37;;
19251;SDS011;9760;50.944;5.304;2022-07-17T13:13:08;3.03;;;1.20;;
19251;SDS011;9760;50.944;5.304;2022-07-17T13:15:33;6.10;;;1.60;;
19251;SDS011;9760;50.944;5.304;2022-07-17T13:18:00;3.67;;;1.60;;
19251;SDS011;9760;50.944;5.304;2022-07-17T13:20:26;5.10;;;1.30;;
19251;SDS011;9760;50.944;5.304;2022-07-17T13:22:52;4.30;;;1.43;;
19251;SDS011;9760;50.944;5.304;2022-07-17T13:25:18;4.17;;;1.23;;
19251;SDS011;9760;50.944;5.304;2022-07-17T13:27:43;3.17;;;1.30;;
19251;SDS011;9760;50.944;5.304;2022-07-17T13:30:10;3.73;;;1.33;;
19251;SDS011;9760;50.944;5.304;2022-07-17T13:32:36;4.43;;;1.40;;
19251;SDS011;9760;50.944;5.304;2022-07-17T13:35:03;3.03;;;1.33;;
19251;SDS011;9760;50.944;5.304;2022-07-17T13:37:30;4.60;;;1.50;;
19251;SDS011;9760;50.944;5.304;2022-07-17T13:39:55;7.20;;;1.40;;
19251;SDS011;9760;50.944;5.304;2022-07-17T13:42:21;5.00;;;1.37;;
19251;SDS011;9760;50.944;5.304;2022-07-17T13:44:47;3.33;;;1.30;;
19251;SDS011;9760;50.944;5.304;2022-07-17T13:47:12;3.83;;;1.30;;
19251;SDS011;9760;50.944;5.304;2022-07-17T13:49:38;2.50;;;1.27;;
19251;SDS011;9760;50.944;5.304;2022-07-17T13:52:04;6.80;;;1.47;;
19251;SDS011;9760;50.944;5.304;2022-07-17T13:54:30;4.47;;;1.17;;
19251;SDS011;9760;50.944;5.304;2022-07-17T13:56:56;2.57;;;1.20;;
19251;SDS011;9760;50.944;5.304;2022-07-17T13:59:22;8.17;;;1.33;;
19251;SDS011;9760;50.944;5.304;2022-07-17T14:01:48;2.50;;;1.20;;
19251;SDS011;9760;50.944;5.304;2022-07-17T14:04:14;2.53;;;1.13;;
19251;SDS011;9760;50.944;5.304;2022-07-17T14:06:39;11.03;;;1.33;;
19251;SDS011;9760;50.944;5.304;2022-07-17T14:09:05;2.33;;;1.07;;
19251;SDS011;9760;50.944;5.304;2022-07-17T14:11:31;3.53;;;1.07;;
19251;SDS011;9760;50.944;5.304;2022-07-17T14:13:57;4.67;;;1.10;;
19251;SDS011;9760;50.944;5.304;2022-07-17T14:16:23;3.47;;;1.30;;
19251;SDS011;9760;50.944;5.304;2022-07-17T14:18:48;3.93;;;1.23;;
19251;SDS011;9760;50.944;5.304;2022-07-17T14:21:27;2.37;;;1.10;;
19251;SDS011;9760;50.944;5.304;2022-07-17T14:23:54;4.37;;;1.27;;
19251;SDS011;9760;50.944;5.304;2022-07-17T14:26:19;2.90;;;1.33;;
19251;SDS011;9760;50.944;5.304;2022-07-17T14:28:45;2.63;;;1.20;;
19251;SDS011;9760;50.944;5.304;2022-07-17T14:31:11;4.03;;;1.40;;
19251;SDS011;9760;50.944;5.304;2022-07-17T14:33:36;3.07;;;1.10;;
19251;SDS011;9760;50.944;5.304;2022-07-17T14:36:02;1.50;;;0.97;;
19251;SDS011;9760;50.944;5.304;2022-07-17T14:38:28;2.13;;;1.10;;
19251;SDS011;9760;50.944;5.304;2022-07-17T14:40:54;6.03;;;1.20;;
19251;SDS011;9760;50.944;5.304;2022-07-17T14:43:20;5.80;;;1.30;;
19251;SDS011;9760;50.944;5.304;2022-07-17T14:45:46;1.43;;;0.80;;
19251;SDS011;9760;50.944;5.304;2022-07-17T14:48:12;3.70;;;1.33;;
19251;SDS011;9760;50.944;5.304;2022-07-17T14:50:37;2.93;;;1.40;;
19251;SDS011;9760;50.944;5.304;2022-07-17T14:53:03;4.53;;;1.30;;
19251;SDS011;9760;50.944;5.304;2022-07-17T14:55:29;2.93;;;1.30;;
19251;SDS011;9760;50.944;5.304;2022-07-17T14:57:54;3.77;;;1.13;;
19251;SDS011;9760;50.944;5.304;2022-07-17T15:00:20;5.73;;;1.30;;
19251;SDS011;9760;50.944;5.304;2022-07-17T15:02:46;6.90;;;1.20;;
19251;SDS011;9760;50.944;5.304;2022-07-17T15:05:11;8.23;;;1.50;;
19251;SDS011;9760;50.944;5.304;2022-07-17T15:07:37;3.33;;;1.10;;
19251;SDS011;9760;50.944;5.304;2022-07-17T15:10:04;4.70;;;1.60;;
19251;SDS011;9760;50.944;5.304;2022-07-17T15:12:30;4.73;;;1.10;;
19251;SDS011;9760;50.944;5.304;2022-07-17T15:14:55;2.60;;;1.30;;